This is the latest recevied weather packets stored in our database for station/object OK1HOL-14. If no packets are shown the sender has not sent any weather packets the latest 1 day(s).
| Time | Temp. | Humidity | Pressure | Rain* | Wind** | Luminosity | Snow |
|---|---|---|---|---|---|---|---|
| 1778060621 | 17.22° C | 64% | 1008.3 hPa | - | - | - | - |
| 1778060013 | 17.22° C | 65% | 1008.3 hPa | - | - | - | - |
| 1778059413 | 17.22° C | 65% | 1008.3 hPa | - | - | - | - |
| 1778058821 | 16.67° C | 66% | 1008.3 hPa | - | - | - | - |
| 1778056418 | 15.56° C | 73% | 1008.3 hPa | - | - | - | - |
| 1778055813 | 15° C | 74% | 1008.1 hPa | - | - | - | - |
| 1778053421 | 14.44° C | 78% | 1007.9 hPa | - | - | - | - |
| 1778052813 | 14.44° C | 80% | 1007.9 hPa | - | - | - | - |
| 1778051013 | 13.89° C | 81% | 1007.9 hPa | - | - | - | - |
| 1778048022 | 12.78° C | 84% | 1007.7 hPa | - | - | - | - |
| 1778047413 | 12.78° C | 85% | 1007.7 hPa | - | - | - | - |
| 1778046813 | 12.22° C | 86% | 1007.9 hPa | - | - | - | - |
| 1778046221 | 12.22° C | 87% | 1007.9 hPa | - | - | - | - |
| 1778043213 | 11.67° C | 89% | 1007.4 hPa | - | - | - | - |
| 1778040213 | 11.11° C | 90% | 1007.4 hPa | - | - | - | - |
| 1778039613 | 11.11° C | 89% | 1007.2 hPa | - | - | - | - |
| 1778039021 | 11.11° C | 89% | 1007.1 hPa | - | - | - | - |
| 1778037237 | 11.11° C | 90% | 1007.2 hPa | - | - | - | - |
| 1778036613 | 11.11° C | 90% | 1007.3 hPa | - | - | - | - |
| 1778036013 | 11.11° C | 90% | 1007.2 hPa | - | - | - | - |
| 1778035413 | 11.67° C | 90% | 1007.3 hPa | - | - | - | - |
| 1778034820 | 11.67° C | 90% | 1007.3 hPa | - | - | - | - |
| 1778034213 | 11.67° C | 90% | 1007.4 hPa | - | - | - | - |
| 1778033613 | 11.67° C | 90% | 1007.4 hPa | - | - | - | - |
| 1778033013 | 11.67° C | 90% | 1007.5 hPa | - | - | - | - |
* Rain since midnight (hover to see other rain measurements)
** Current wind speed in m/s (hover to see current wind gust speed)